Terminal Aerodrome Forecast
Issued by NWS

Home | Current Version | Previous Version | Text Only | Print | Product List | Glossary On
Versions: 1 2 3 4 5 6 7 8 9 10 11 12 13 14 15 16 17 18 19 20 21 22 23
000
FTUS41 KPBZ 230500
TAFBVI
TAF
KBVI 230535Z 2306/2406 VRB03KT P6SM BKN040
     FM230800 VRB03KT 2SM BR SCT035
     FM231000 VRB03KT 1SM BR OVC003
     FM231400 06005KT P6SM BKN015
     FM231700 05005KT P6SM BKN040
      AMD NOT SKED=

USA.gov is the U.S. government's official web portal to all federal, state and local government web resources and services.